Time;durP1;ratioP1;P1;durP2;ratioP2;P2;SDS_P1;SDS_P2;PMS_P1;PMS_P2;Temp;Humidity;BMP_temperature;BMP_pressure;BME280_temperature;BME280_humidity;BME280_pressure;Samples;Min_cycle;Max_cycle;Signal;HPM_P1;HPM_P2
2023/08/17 00:02:13;;;;;;;112.10;3.40;;;24.10;54.80;;;;;;5072003;28;20238;-74
2023/08/17 00:04:40;;;;;;;111.30;3.13;;;24.00;56.20;;;;;;5071599;28;20192;-74
2023/08/17 00:07:06;;;;;;;112.10;3.70;;;24.20;55.00;;;;;;5072032;28;20216;-74
2023/08/17 00:09:32;;;;;;;111.83;3.60;;;24.20;54.20;;;;;;5071721;28;20463;-73
2023/08/17 00:11:57;;;;;;;111.90;3.37;;;24.20;53.80;;;;;;5071841;28;20206;-74
2023/08/17 00:14:23;;;;;;;111.77;3.27;;;24.30;53.60;;;;;;5072161;28;20584;-74
2023/08/17 00:16:50;;;;;;;113.00;3.43;;;24.30;53.60;;;;;;5059489;28;20185;-74
2023/08/17 00:19:16;;;;;;;112.27;3.57;;;24.20;53.80;;;;;;5062600;28;20186;-74
2023/08/17 00:21:41;;;;;;;111.87;3.30;;;24.00;55.30;;;;;;5069048;28;20441;-74
2023/08/17 00:24:07;;;;;;;112.70;3.60;;;24.10;55.00;;;;;;5071588;28;20627;-74
2023/08/17 00:26:33;;;;;;;111.57;3.13;;;24.20;54.00;;;;;;5071472;28;20251;-74
2023/08/17 00:28:59;;;;;;;111.57;3.20;;;24.20;53.80;;;;;;5071575;28;20547;-74
2023/08/17 00:31:24;;;;;;;111.77;3.00;;;24.20;53.20;;;;;;5071293;28;20200;-74
2023/08/17 00:33:50;;;;;;;111.80;3.10;;;24.20;53.60;;;;;;5071535;28;20664;-74
2023/08/17 00:36:15;;;;;;;111.40;3.00;;;24.20;54.40;;;;;;5071232;28;20177;-74
2023/08/17 00:38:41;;;;;;;111.57;2.90;;;24.30;53.20;;;;;;5071454;28;20221;-74
2023/08/17 00:41:07;;;;;;;111.57;3.00;;;24.40;52.70;;;;;;5071492;28;20230;-73
2023/08/17 00:43:32;;;;;;;111.87;3.10;;;24.50;51.50;;;;;;5071571;28;20175;-76
2023/08/17 00:45:58;;;;;;;111.20;2.70;;;24.40;52.30;;;;;;5070970;28;20259;-76
2023/08/17 00:48:26;;;;;;;112.07;3.37;;;24.30;52.60;;;;;;5071435;28;20410;-76
2023/08/17 00:50:53;;;;;;;112.80;3.70;;;24.20;52.00;;;;;;5071308;28;20223;-76
2023/08/17 00:53:20;;;;;;;111.73;3.33;;;24.20;53.30;;;;;;5053479;28;21046;-76
2023/08/17 00:55:46;;;;;;;113.33;4.20;;;24.00;52.80;;;;;;5071494;28;20781;-76
2023/08/17 00:58:12;;;;;;;111.97;3.30;;;24.00;53.80;;;;;;5077906;28;20420;-76
2023/08/17 01:00:37;;;;;;;111.80;3.23;;;24.00;53.40;;;;;;5077463;28;20218;-76
2023/08/17 01:03:04;;;;;;;111.80;3.20;;;23.90;53.40;;;;;;5078026;28;20183;-76
2023/08/17 01:05:32;;;;;;;113.07;3.60;;;23.90;54.00;;;;;;5077607;28;20600;-76
2023/08/17 01:07:58;;;;;;;112.17;3.30;;;23.80;53.40;;;;;;5077739;28;20440;-76
2023/08/17 01:10:32;;;;;;;112.30;3.20;;;23.80;54.20;;;;;;5077786;28;20463;-75
2023/08/17 01:13:11;;;;;;;112.70;3.50;;;23.80;54.30;;;;;;5077499;28;20466;-76
2023/08/17 01:15:40;;;;;;;111.47;2.73;;;23.80;55.00;;;;;;5077633;28;20404;-76
2023/08/17 01:18:09;;;;;;;113.43;3.57;;;23.90;54.00;;;;;;5077716;28;20457;-76
2023/08/17 01:20:35;;;;;;;111.70;3.30;;;23.70;54.30;;;;;;5077802;28;20466;-76
2023/08/17 01:23:07;;;;;;;112.07;3.07;;;23.90;53.60;;;;;;5077725;28;20423;-76
2023/08/17 01:25:38;;;;;;;112.27;3.30;;;24.20;52.20;;;;;;5077571;28;20509;-76
2023/08/17 01:28:04;;;;;;;113.23;3.70;;;24.00;53.10;;;;;;5077728;28;20409;-76
2023/08/17 01:30:36;;;;;;;118.07;4.07;;;23.90;53.60;;;;;;5077386;28;20436;-76
2023/08/17 01:33:06;;;;;;;112.47;3.80;;;23.80;54.20;;;;;;5077361;28;20682;-76
2023/08/17 01:35:53;;;;;;;111.80;3.27;;;23.90;53.50;;;;;;5077464;28;20411;-76
2023/08/17 01:38:22;;;;;;;112.27;3.47;;;23.80;53.20;;;;;;5077673;28;20412;-76
2023/08/17 01:40:48;;;;;;;112.87;3.20;;;23.70;53.90;;;;;;5063371;28;20885;-76
2023/08/17 01:43:16;;;;;;;111.87;3.10;;;23.70;53.80;;;;;;5057468;28;20412;-75
2023/08/17 01:45:42;;;;;;;112.07;3.23;;;23.70;53.30;;;;;;5057180;28;20469;-76
2023/08/17 01:48:07;;;;;;;112.20;3.13;;;23.70;53.30;;;;;;5057509;28;20792;-76
2023/08/17 01:50:33;;;;;;;112.47;3.53;;;23.80;53.10;;;;;;5057375;28;20193;-75
2023/08/17 01:52:58;;;;;;;111.90;2.90;;;23.60;53.50;;;;;;5057446;28;20207;-76
2023/08/17 01:55:24;;;;;;;112.30;3.07;;;23.80;52.20;;;;;;5051956;28;20619;-76
2023/08/17 01:57:50;;;;;;;112.43;3.20;;;23.90;52.30;;;;;;5061568;28;20187;-76
2023/08/17 02:00:15;;;;;;;114.20;3.80;;;24.00;52.00;;;;;;5067070;28;20349;-77
2023/08/17 02:02:41;;;;;;;112.57;3.47;;;23.80;53.00;;;;;;5074694;28;20254;-76
2023/08/17 02:05:07;;;;;;;111.73;3.17;;;23.70;53.80;;;;;;5077098;28;20187;-76
2023/08/17 02:07:33;;;;;;;112.60;3.37;;;24.00;52.00;;;;;;5058209;28;20183;-74
2023/08/17 02:09:59;;;;;;;124.73;3.63;;;24.10;51.70;;;;;;5073620;28;20806;-74
2023/08/17 02:12:24;;;;;;;112.27;3.17;;;23.80;52.80;;;;;;5074135;28;20212;-74
2023/08/17 02:14:50;;;;;;;112.57;3.47;;;23.70;52.40;;;;;;5073695;28;20325;-76
2023/08/17 02:17:16;;;;;;;112.97;3.63;;;23.50;52.60;;;;;;5073941;28;20221;-76
2023/08/17 02:19:43;;;;;;;114.60;3.97;;;23.70;52.60;;;;;;5061047;28;20549;-76
2023/08/17 02:22:09;;;;;;;112.47;3.50;;;23.70;52.60;;;;;;5062976;28;20574;-74
2023/08/17 02:24:35;;;;;;;112.37;3.13;;;23.70;53.00;;;;;;5055200;28;20431;-74
2023/08/17 02:27:00;;;;;;;112.67;3.37;;;23.60;53.20;;;;;;5065727;28;20858;-74
2023/08/17 02:29:26;;;;;;;112.47;3.43;;;23.50;53.60;;;;;;5074020;28;20183;-74
2023/08/17 02:31:52;;;;;;;112.57;3.20;;;23.50;53.10;;;;;;5073698;28;20282;-74
2023/08/17 02:34:17;;;;;;;112.83;3.50;;;23.50;52.80;;;;;;5073693;28;20249;-74
2023/08/17 02:36:43;;;;;;;112.50;3.37;;;23.50;53.60;;;;;;5073392;28;20536;-74
2023/08/17 02:39:08;;;;;;;112.27;3.23;;;23.50;52.60;;;;;;5073681;28;20266;-74
2023/08/17 02:41:34;;;;;;;113.20;3.70;;;23.50;52.70;;;;;;5073396;28;20191;-74
2023/08/17 02:44:00;;;;;;;112.77;3.30;;;23.40;53.10;;;;;;5073492;28;20232;-76
2023/08/17 02:46:26;;;;;;;112.20;3.17;;;23.50;53.80;;;;;;5073524;28;20182;-74
2023/08/17 02:48:53;;;;;;;112.90;3.90;;;23.40;53.00;;;;;;5059861;28;20798;-74
2023/08/17 02:51:18;;;;;;;112.47;3.00;;;23.30;54.20;;;;;;5052133;28;20209;-74
2023/08/17 02:53:44;;;;;;;112.47;3.27;;;23.40;54.00;;;;;;5051945;28;20471;-74
2023/08/17 02:56:12;;;;;;;112.63;3.10;;;23.20;54.00;;;;;;5062102;28;20218;-74
2023/08/17 02:58:41;;;;;;;112.47;3.30;;;23.20;54.30;;;;;;5054691;28;20191;-74
2023/08/17 03:01:07;;;;;;;112.87;3.60;;;23.50;52.10;;;;;;5057598;28;20487;-74
2023/08/17 03:03:33;;;;;;;112.83;3.40;;;23.60;52.60;;;;;;5049105;28;20437;-74
2023/08/17 03:05:58;;;;;;;112.87;3.73;;;23.70;52.70;;;;;;5042385;28;20438;-74
2023/08/17 03:08:24;;;;;;;116.13;4.90;;;23.70;50.80;;;;;;5050032;28;20197;-74
2023/08/17 03:10:49;;;;;;;112.43;3.30;;;23.70;50.90;;;;;;5052645;28;20202;-74
2023/08/17 03:13:15;;;;;;;112.20;3.17;;;23.70;50.30;;;;;;5051692;28;20239;-74
2023/08/17 03:15:40;;;;;;;112.70;3.50;;;23.60;51.30;;;;;;5049142;28;20594;-74
2023/08/17 03:18:06;;;;;;;112.43;3.27;;;23.50;51.40;;;;;;5048017;28;20213;-74
2023/08/17 03:20:32;;;;;;;115.47;3.63;;;23.30;52.00;;;;;;5051208;28;20290;-75
2023/08/17 03:22:57;;;;;;;112.97;3.80;;;23.40;53.00;;;;;;5052492;28;20275;-74
2023/08/17 03:25:23;;;;;;;112.87;3.60;;;23.40;53.10;;;;;;5046361;28;20193;-74
2023/08/17 03:27:48;;;;;;;112.87;3.63;;;23.20;53.40;;;;;;5050989;28;20705;-74
2023/08/17 03:30:14;;;;;;;113.40;4.00;;;22.90;55.50;;;;;;5051069;28;20211;-74
2023/08/17 03:32:40;;;;;;;112.33;3.10;;;23.20;56.80;;;;;;5052571;28;20210;-74
2023/08/17 03:35:06;;;;;;;112.90;3.60;;;23.00;55.50;;;;;;5052190;28;20640;-74
2023/08/17 03:37:32;;;;;;;112.40;3.10;;;22.90;55.60;;;;;;5042906;28;20470;-74
2023/08/17 03:39:58;;;;;;;112.27;3.10;;;23.00;55.40;;;;;;5049696;28;20448;-74
2023/08/17 03:42:23;;;;;;;112.57;3.37;;;23.00;55.40;;;;;;5051801;28;20185;-74
2023/08/17 03:44:50;;;;;;;113.97;3.60;;;23.10;54.10;;;;;;5046412;28;20200;-74
2023/08/17 03:47:16;;;;;;;112.47;3.13;;;23.10;54.10;;;;;;5052292;28;20644;-74
2023/08/17 03:49:41;;;;;;;112.67;3.33;;;23.10;54.20;;;;;;5052288;28;20420;-74
2023/08/17 03:52:07;;;;;;;112.60;3.33;;;23.40;52.30;;;;;;5052098;28;20203;-74
2023/08/17 03:54:32;;;;;;;112.20;3.00;;;23.40;52.60;;;;;;5048283;28;20544;-74
2023/08/17 03:56:58;;;;;;;112.73;3.30;;;23.20;52.90;;;;;;5043558;28;20236;-74
2023/08/17 03:59:23;;;;;;;113.20;3.90;;;23.10;53.10;;;;;;5050990;28;20193;-74
2023/08/17 04:01:50;;;;;;;112.80;3.20;;;23.00;52.80;;;;;;5051313;28;20235;-73
2023/08/17 04:04:16;;;;;;;113.63;3.83;;;23.00;53.70;;;;;;5045762;28;20649;-74
2023/08/17 04:06:41;;;;;;;112.47;3.20;;;23.10;54.20;;;;;;5046143;28;20445;-74
2023/08/17 04:09:07;;;;;;;112.67;3.50;;;23.00;54.50;;;;;;5051668;28;20185;-74
2023/08/17 04:11:35;;;;;;;112.77;3.60;;;23.10;54.60;;;;;;5051776;28;20249;-74
2023/08/17 04:14:01;;;;;;;113.40;3.63;;;23.10;54.50;;;;;;5051725;28;20173;-74
2023/08/17 04:16:26;;;;;;;112.47;3.37;;;22.80;55.10;;;;;;5051046;28;20414;-74
2023/08/17 04:18:52;;;;;;;113.00;3.70;;;22.20;59.90;;;;;;5045345;28;20706;-73
2023/08/17 04:21:17;;;;;;;112.67;3.23;;;22.40;58.60;;;;;;5051153;28;20206;-74
2023/08/17 04:23:43;;;;;;;112.30;3.33;;;22.00;60.40;;;;;;5046776;28;20193;-76
2023/08/17 04:26:08;;;;;;;112.57;3.10;;;22.10;60.90;;;;;;5051138;28;20172;-74
2023/08/17 04:28:34;;;;;;;112.57;3.47;;;22.30;60.70;;;;;;5051708;28;20207;-74
2023/08/17 04:30:59;;;;;;;112.47;3.23;;;22.40;58.40;;;;;;5050451;28;20268;-74
2023/08/17 04:33:25;;;;;;;112.10;3.10;;;22.20;59.00;;;;;;5051467;28;20203;-73
2023/08/17 04:35:51;;;;;;;112.53;3.37;;;21.60;64.30;;;;;;5051284;28;20178;-74
2023/08/17 04:38:16;;;;;;;112.13;3.13;;;22.10;62.90;;;;;;5051439;28;20503;-74
2023/08/17 04:40:42;;;;;;;112.57;3.23;;;22.50;60.20;;;;;;5051364;28;20257;-74
2023/08/17 04:43:09;;;;;;;111.87;3.13;;;23.00;56.60;;;;;;5051466;28;20187;-74
2023/08/17 04:45:35;;;;;;;112.50;3.30;;;23.30;55.00;;;;;;5048869;28;20703;-74
2023/08/17 04:48:00;;;;;;;112.80;3.47;;;23.30;55.60;;;;;;5050922;28;20451;-74
2023/08/17 04:50:26;;;;;;;112.13;3.40;;;23.40;54.00;;;;;;5041122;28;20700;-74
2023/08/17 04:52:51;;;;;;;112.20;3.37;;;23.60;52.80;;;;;;5050947;28;20615;-74
2023/08/17 04:55:17;;;;;;;112.20;3.40;;;23.50;52.70;;;;;;5050814;28;20256;-74
2023/08/17 04:57:42;;;;;;;111.80;2.83;;;23.30;54.00;;;;;;5051138;28;20174;-74
2023/08/17 05:00:09;;;;;;;113.10;3.70;;;23.40;53.40;;;;;;5044483;28;20223;-74
2023/08/17 05:02:35;;;;;;;112.17;3.53;;;22.90;55.30;;;;;;5049131;28;20184;-73
2023/08/17 05:05:04;;;;;;;112.20;3.30;;;22.50;59.60;;;;;;5047603;28;20512;-74
2023/08/17 05:07:29;;;;;;;111.50;3.23;;;22.90;57.80;;;;;;5048978;28;20426;-74
2023/08/17 05:09:55;;;;;;;112.00;3.30;;;23.20;56.20;;;;;;5050964;28;20444;-74
2023/08/17 05:12:20;;;;;;;112.10;3.40;;;23.40;55.60;;;;;;5050798;28;20204;-74
2023/08/17 05:14:46;;;;;;;112.10;3.23;;;23.40;55.50;;;;;;5050901;28;20180;-73
2023/08/17 05:17:12;;;;;;;112.57;3.47;;;23.10;57.10;;;;;;5051023;28;20231;-74
2023/08/17 05:19:39;;;;;;;112.17;3.30;;;23.10;57.90;;;;;;5051112;28;20179;-74
2023/08/17 05:22:05;;;;;;;113.63;3.93;;;23.20;57.20;;;;;;5050870;28;20262;-74
2023/08/17 05:24:31;;;;;;;113.50;4.03;;;23.40;57.40;;;;;;5051011;28;20501;-74
2023/08/17 05:26:57;;;;;;;112.77;3.27;;;23.60;55.80;;;;;;5050768;28;20515;-74
2023/08/17 05:29:23;;;;;;;112.77;3.80;;;23.50;56.10;;;;;;5051394;28;20183;-74
2023/08/17 05:31:48;;;;;;;113.67;4.13;;;23.40;57.10;;;;;;5050294;28;20472;-74
2023/08/17 05:34:14;;;;;;;112.77;3.83;;;23.60;58.30;;;;;;5050956;28;20232;-74
2023/08/17 05:36:41;;;;;;;112.30;3.57;;;23.30;59.40;;;;;;5050458;28;20168;-74
2023/08/17 05:39:06;;;;;;;113.30;3.93;;;23.50;58.60;;;;;;5051152;28;20460;-74
2023/08/17 05:41:32;;;;;;;112.50;3.73;;;23.30;59.60;;;;;;5050776;28;20435;-74
2023/08/17 05:43:58;;;;;;;112.37;3.43;;;23.60;57.70;;;;;;5052573;28;20683;-74
2023/08/17 05:46:24;;;;;;;113.37;4.03;;;23.80;55.70;;;;;;5054344;28;20304;-74
2023/08/17 05:48:49;;;;;;;112.83;3.97;;;24.00;55.00;;;;;;5054590;28;20550;-74
2023/08/17 05:51:15;;;;;;;112.77;3.77;;;23.80;56.90;;;;;;5054885;28;20486;-74
2023/08/17 05:53:41;;;;;;;112.27;3.50;;;24.00;56.40;;;;;;5054397;28;20200;-74
2023/08/17 05:56:07;;;;;;;112.70;3.90;;;24.10;54.30;;;;;;5054217;28;20638;-74
2023/08/17 05:58:32;;;;;;;112.33;3.57;;;23.70;55.60;;;;;;5053096;28;20427;-74
2023/08/17 06:01:06;;;;;;;113.63;3.77;;;23.70;57.10;;;;;;5066345;28;20261;-74
2023/08/17 06:03:31;;;;;;;113.20;3.70;;;24.00;54.60;;;;;;5056394;28;20184;-74
2023/08/17 06:05:57;;;;;;;111.80;3.33;;;23.80;54.90;;;;;;5073851;28;20418;-74
2023/08/17 06:08:23;;;;;;;112.10;3.27;;;24.10;53.50;;;;;;5074193;28;20200;-74
2023/08/17 06:10:48;;;;;;;112.07;3.10;;;23.90;56.30;;;;;;5074106;28;20202;-74
2023/08/17 06:13:14;;;;;;;111.87;3.20;;;23.60;56.20;;;;;;5073911;28;20208;-74
2023/08/17 06:15:39;;;;;;;112.40;3.30;;;24.00;52.60;;;;;;5073882;28;20255;-74
2023/08/17 06:18:05;;;;;;;112.47;3.60;;;24.30;51.40;;;;;;5073854;28;20181;-74
2023/08/17 06:20:31;;;;;;;112.47;3.57;;;23.50;55.70;;;;;;5073892;28;20236;-74
2023/08/17 06:22:57;;;;;;;112.70;3.70;;;23.40;57.80;;;;;;5073775;28;20422;-74
2023/08/17 06:25:22;;;;;;;111.53;3.13;;;23.80;57.20;;;;;;5073739;28;20257;-74
2023/08/17 06:27:49;;;;;;;114.20;3.77;;;24.10;57.60;;;;;;5073732;28;20210;-74
2023/08/17 06:30:15;;;;;;;112.60;3.70;;;23.30;57.70;;;;;;5073468;28;20229;-74
2023/08/17 06:32:41;;;;;;;112.27;3.57;;;23.30;58.90;;;;;;5073594;28;20453;-74
2023/08/17 06:35:07;;;;;;;112.30;3.47;;;23.80;55.20;;;;;;5073480;28;20832;-74
2023/08/17 06:37:33;;;;;;;112.10;3.50;;;23.80;55.20;;;;;;5073735;28;20251;-73
2023/08/17 06:39:58;;;;;;;112.47;3.67;;;23.20;58.80;;;;;;5055597;28;20534;-74
2023/08/17 06:42:24;;;;;;;111.90;3.20;;;23.10;61.60;;;;;;5073578;28;20721;-73
2023/08/17 06:44:49;;;;;;;111.77;3.43;;;23.10;60.40;;;;;;5073384;28;20664;-74
2023/08/17 06:47:15;;;;;;;112.37;3.47;;;22.70;62.60;;;;;;5073505;28;20188;-73
2023/08/17 06:49:41;;;;;;;112.97;3.40;;;22.70;64.10;;;;;;5073239;28;20261;-74
2023/08/17 06:52:06;;;;;;;112.10;3.50;;;22.70;62.90;;;;;;5073617;28;20207;-73
2023/08/17 06:54:32;;;;;;;112.87;3.87;;;22.50;66.10;;;;;;5072746;28;20184;-73
2023/08/17 06:56:58;;;;;;;112.47;3.43;;;22.40;69.40;;;;;;5073093;28;20170;-74
2023/08/17 06:59:24;;;;;;;112.50;3.80;;;22.70;65.70;;;;;;5073278;28;20173;-73
2023/08/17 07:01:49;;;;;;;112.40;3.70;;;22.70;64.60;;;;;;5072804;28;20545;-74
2023/08/17 07:04:15;;;;;;;111.63;3.13;;;22.80;65.90;;;;;;5072836;28;20213;-76
2023/08/17 07:06:41;;;;;;;112.43;3.83;;;22.90;66.00;;;;;;5073175;28;20182;-76
2023/08/17 07:09:06;;;;;;;115.90;3.70;;;22.20;67.70;;;;;;5072983;28;20657;-74
2023/08/17 07:11:32;;;;;;;112.30;4.00;;;22.30;69.40;;;;;;5055012;28;20480;-73
2023/08/17 07:13:58;;;;;;;112.63;3.47;;;22.40;68.90;;;;;;5072778;28;20407;-74
2023/08/17 07:16:23;;;;;;;112.90;3.67;;;22.60;66.60;;;;;;5072922;28;20254;-74
2023/08/17 07:18:49;;;;;;;111.67;3.43;;;22.80;69.10;;;;;;5072654;28;20177;-73
2023/08/17 07:21:14;;;;;;;112.07;3.63;;;22.90;68.30;;;;;;5073172;28;20199;-73
2023/08/17 07:23:44;;;;;;;113.50;3.87;;;22.70;70.10;;;;;;5072738;28;20666;-74
2023/08/17 07:26:10;;;;;;;112.60;3.43;;;22.30;70.90;;;;;;5054609;28;20686;-73
2023/08/17 07:28:35;;;;;;;113.07;3.90;;;22.40;71.40;;;;;;5072632;28;20405;-74
2023/08/17 07:31:01;;;;;;;111.73;3.40;;;22.00;74.10;;;;;;5072197;28;20675;-73
2023/08/17 07:33:26;;;;;;;112.07;3.23;;;22.00;73.80;;;;;;5072319;28;20192;-73
2023/08/17 07:35:54;;;;;;;112.07;3.63;;;22.20;72.40;;;;;;5072262;28;20692;-73
2023/08/17 07:38:19;;;;;;;112.67;4.10;;;22.20;71.90;;;;;;5072410;28;20514;-73
2023/08/17 07:40:45;;;;;;;111.80;3.37;;;22.80;70.50;;;;;;5072410;28;20458;-73
2023/08/17 07:43:10;;;;;;;111.67;3.67;;;23.40;61.50;;;;;;5072305;28;20177;-74
2023/08/17 07:45:36;;;;;;;111.40;3.00;;;22.70;67.10;;;;;;5072181;28;20170;-73
2023/08/17 07:48:02;;;;;;;112.10;3.70;;;22.40;69.00;;;;;;5072136;28;20177;-73
2023/08/17 07:50:27;;;;;;;112.00;3.40;;;22.70;68.10;;;;;;5072235;28;20193;-74
2023/08/17 07:52:53;;;;;;;112.07;3.63;;;22.60;66.70;;;;;;5072036;28;20201;-73
2023/08/17 07:55:18;;;;;;;111.83;3.77;;;22.70;68.10;;;;;;5071708;28;20663;-74
2023/08/17 07:57:44;;;;;;;118.17;5.00;;;23.00;64.50;;;;;;5072066;28;20174;-74
2023/08/17 08:00:10;;;;;;;111.90;3.57;;;22.70;67.50;;;;;;5071551;28;20626;-73
2023/08/17 08:02:35;;;;;;;111.63;3.27;;;22.90;65.60;;;;;;5071981;28;20220;-74
2023/08/17 08:05:01;;;;;;;114.40;3.63;;;22.90;67.00;;;;;;5071664;28;20416;-74
2023/08/17 08:07:27;;;;;;;112.40;3.47;;;23.00;69.90;;;;;;5071398;28;20179;-73
2023/08/17 08:09:52;;;;;;;112.60;3.63;;;22.60;70.10;;;;;;5071674;28;20214;-73
2023/08/17 08:12:18;;;;;;;112.40;3.73;;;22.50;66.70;;;;;;5071933;28;20202;-74
2023/08/17 08:14:43;;;;;;;113.77;4.27;;;22.80;67.50;;;;;;5071687;28;20198;-74
2023/08/17 08:17:09;;;;;;;111.63;3.40;;;23.50;64.20;;;;;;5072199;28;20166;-74
2023/08/17 08:19:35;;;;;;;112.60;3.60;;;24.20;58.20;;;;;;5071676;28;20224;-74
2023/08/17 08:22:02;;;;;;;111.60;3.20;;;24.00;57.30;;;;;;5071777;28;20175;-74
2023/08/17 08:24:33;;;;;;;111.90;3.60;;;24.30;56.10;;;;;;5071464;28;20409;-73
2023/08/17 08:26:59;;;;;;;111.40;3.30;;;24.40;55.00;;;;;;5071603;28;20397;-73
2023/08/17 08:29:24;;;;;;;114.37;4.00;;;23.90;58.20;;;;;;5071536;28;20412;-73
2023/08/17 08:31:50;;;;;;;111.20;3.13;;;24.20;59.60;;;;;;5071083;28;20179;-73
2023/08/17 08:34:15;;;;;;;112.40;4.00;;;24.30;56.70;;;;;;5071494;28;20167;-74
2023/08/17 08:36:41;;;;;;;111.30;3.30;;;23.40;61.00;;;;;;5071622;28;20163;-73
2023/08/17 08:39:07;;;;;;;112.47;3.60;;;23.20;64.60;;;;;;5071364;28;20175;-73
2023/08/17 08:41:35;;;;;;;111.97;3.67;;;23.70;61.10;;;;;;5071512;28;20189;-74
2023/08/17 08:44:01;;;;;;;112.60;3.60;;;24.20;58.10;;;;;;5071275;28;20420;-73
2023/08/17 08:46:30;;;;;;;111.60;3.13;;;23.50;61.10;;;;;;5071266;28;20402;-74
2023/08/17 08:48:56;;;;;;;111.40;3.47;;;23.70;61.30;;;;;;5071740;28;20175;-73
2023/08/17 08:51:28;;;;;;;111.33;3.37;;;23.60;59.80;;;;;;5071367;28;20520;-73
2023/08/17 08:54:04;;;;;;;110.80;3.20;;;24.10;59.00;;;;;;5071231;28;20492;-73
2023/08/17 08:56:34;;;;;;;111.50;3.43;;;24.50;55.80;;;;;;5071170;28;20413;-74
2023/08/17 08:59:04;;;;;;;111.33;3.37;;;25.10;51.90;;;;;;5071226;28;20417;-73
2023/08/17 09:01:33;;;;;;;112.90;4.67;;;24.40;55.50;;;;;;5070930;28;20441;-75
2023/08/17 09:04:00;;;;;;;113.17;3.80;;;24.40;56.10;;;;;;5071190;28;20454;-75
2023/08/17 09:06:27;;;;;;;111.43;3.70;;;24.70;56.70;;;;;;5071176;28;20402;-75
2023/08/17 09:08:53;;;;;;;111.43;3.67;;;25.10;53.60;;;;;;5053138;28;20809;-75
2023/08/17 09:11:18;;;;;;;111.70;3.50;;;24.70;57.20;;;;;;5071090;28;20435;-75
2023/08/17 09:13:44;;;;;;;112.40;3.67;;;24.80;54.60;;;;;;5071133;28;20455;-75
2023/08/17 09:16:10;;;;;;;111.50;3.53;;;24.70;54.80;;;;;;5070868;28;20179;-75
2023/08/17 09:18:35;;;;;;;111.50;3.80;;;24.30;57.70;;;;;;5056171;28;20494;-75
2023/08/17 09:21:01;;;;;;;111.00;3.30;;;24.90;55.00;;;;;;5074951;28;20262;-75
2023/08/17 09:23:27;;;;;;;110.93;3.20;;;25.10;53.70;;;;;;5075598;28;20171;-75
2023/08/17 09:25:57;;;;;;;112.20;4.00;;;24.80;55.70;;;;;;5074659;28;20470;-75
2023/08/17 09:28:23;;;;;;;110.50;3.03;;;24.80;57.30;;;;;;5075092;28;20240;-75
2023/08/17 09:31:05;;;;;;;111.77;3.70;;;25.20;54.70;;;;;;5074545;28;20519;-75
2023/08/17 09:33:31;;;;;;;110.37;3.30;;;25.40;54.80;;;;;;5074938;28;20471;-75
2023/08/17 09:35:58;;;;;;;110.83;3.20;;;25.20;53.30;;;;;;5074506;28;20401;-75
2023/08/17 09:38:24;;;;;;;111.10;3.50;;;24.90;57.30;;;;;;5074722;28;20397;-75
2023/08/17 09:40:50;;;;;;;110.63;3.00;;;25.40;54.20;;;;;;5074578;28;20470;-75
2023/08/17 09:43:17;;;;;;;113.13;3.43;;;25.60;53.20;;;;;;5074757;28;20989;-75
2023/08/17 09:45:49;;;;;;;112.20;3.20;;;25.40;53.90;;;;;;5074221;28;20454;-75
2023/08/17 09:48:17;;;;;;;111.87;3.77;;;25.10;57.00;;;;;;5074853;28;20973;-75
2023/08/17 09:50:44;;;;;;;110.97;3.70;;;25.20;56.10;;;;;;5074363;28;20858;-75
2023/08/17 09:53:14;;;;;;;111.80;3.70;;;25.00;57.20;;;;;;5074354;28;20472;-75
2023/08/17 09:55:41;;;;;;;110.87;3.27;;;25.00;57.80;;;;;;5074138;28;20430;-75
2023/08/17 09:58:08;;;;;;;110.40;3.03;;;25.20;57.10;;;;;;5074520;28;20698;-75
2023/08/17 10:00:34;;;;;;;110.70;3.37;;;25.30;55.30;;;;;;5073839;28;20444;-75
2023/08/17 10:03:02;;;;;;;110.97;3.50;;;25.00;57.30;;;;;;5074303;28;20409;-75
2023/08/17 10:05:35;;;;;;;110.50;3.20;;;25.40;55.70;;;;;;5073879;28;20764;-75
2023/08/17 10:08:03;;;;;;;111.57;3.47;;;25.50;54.30;;;;;;5074338;28;20503;-75
2023/08/17 10:10:34;;;;;;;110.80;3.07;;;25.50;54.90;;;;;;5074109;28;20428;-75
2023/08/17 10:13:15;;;;;;;111.33;3.30;;;26.40;50.00;;;;;;5074155;28;20453;-75
2023/08/17 10:15:50;;;;;;;111.57;3.30;;;26.70;52.30;;;;;;5073825;28;20408;-75
2023/08/17 10:18:34;;;;;;;111.70;3.87;;;27.20;46.50;;;;;;5074303;28;20405;-75
2023/08/17 10:21:06;;;;;;;109.80;2.73;;;26.80;47.60;;;;;;5073821;28;20850;-75
2023/08/17 10:23:32;;;;;;;109.87;3.00;;;27.30;46.20;;;;;;5056188;28;20424;-75
2023/08/17 10:26:00;;;;;;;110.37;3.30;;;27.10;48.30;;;;;;5073486;28;20458;-75
2023/08/17 10:28:26;;;;;;;112.20;4.13;;;27.80;46.50;;;;;;5073590;28;20962;-75
2023/08/17 10:30:51;;;;;;;110.90;3.40;;;28.20;43.50;;;;;;5072730;28;20433;-75
2023/08/17 10:33:18;;;;;;;112.43;3.20;;;27.70;44.20;;;;;;5073802;28;20449;-75
2023/08/17 10:35:45;;;;;;;110.43;3.20;;;28.20;44.10;;;;;;5073397;28;20207;-75
2023/08/17 10:38:11;;;;;;;110.30;3.30;;;28.70;43.70;;;;;;5073891;28;20967;-75
2023/08/17 10:40:39;;;;;;;112.30;3.90;;;29.10;42.90;;;;;;5073541;28;20964;-75
2023/08/17 10:43:05;;;;;;;111.07;3.80;;;29.40;41.00;;;;;;5073646;28;20408;-75
2023/08/17 10:45:33;;;;;;;110.17;3.20;;;29.90;39.80;;;;;;5073404;28;20402;-75
2023/08/17 10:48:07;;;;;;;111.00;3.37;;;28.80;39.90;;;;;;5073418;28;20420;-75
2023/08/17 10:50:37;;;;;;;110.00;3.20;;;29.20;40.90;;;;;;5073437;28;20425;-75
2023/08/17 10:53:12;;;;;;;109.57;2.80;;;29.50;39.20;;;;;;5073342;28;20449;-75
2023/08/17 10:55:40;;;;;;;109.23;3.07;;;28.20;41.40;;;;;;5073175;28;20498;-75
2023/08/17 10:58:10;;;;;;;110.27;3.40;;;27.80;43.50;;;;;;5073343;28;20401;-75
2023/08/17 11:00:37;;;;;;;110.20;3.53;;;27.80;43.10;;;;;;5072843;28;20990;-75
2023/08/17 11:03:19;;;;;;;108.60;2.70;;;28.30;44.70;;;;;;5073249;28;20408;-75
2023/08/17 11:05:48;;;;;;;108.77;2.90;;;28.40;42.70;;;;;;5072865;28;20427;-75
2023/08/17 11:08:32;;;;;;;109.57;3.10;;;28.10;43.10;;;;;;5055423;28;20806;-75
2023/08/17 11:11:13;;;;;;;108.37;2.77;;;28.10;43.50;;;;;;5073165;28;20425;-75
2023/08/17 11:13:45;;;;;;;110.30;4.27;;;27.90;44.20;;;;;;5073093;28;20459;-75
2023/08/17 11:16:13;;;;;;;108.87;3.00;;;27.70;45.60;;;;;;5072631;28;20406;-75
2023/08/17 11:18:41;;;;;;;108.50;3.00;;;28.30;44.00;;;;;;5073015;28;20413;-75
2023/08/17 11:21:07;;;;;;;108.67;3.00;;;28.30;43.00;;;;;;5072936;28;20470;-75
2023/08/17 11:23:34;;;;;;;108.20;2.90;;;27.60;45.70;;;;;;5072924;28;20406;-75
2023/08/17 11:26:00;;;;;;;108.30;3.27;;;27.20;47.90;;;;;;5072444;28;20779;-75
2023/08/17 11:28:26;;;;;;;108.27;3.00;;;27.40;47.90;;;;;;5072831;28;20409;-75
2023/08/17 11:31:03;;;;;;;108.50;3.30;;;28.20;45.00;;;;;;5072646;28;20190;-75
2023/08/17 11:33:30;;;;;;;107.97;2.80;;;28.10;44.30;;;;;;5054666;28;20480;-75
2023/08/17 11:36:01;;;;;;;108.70;3.13;;;28.50;43.50;;;;;;5072246;28;20487;-75
2023/08/17 11:38:31;;;;;;;107.87;3.20;;;29.10;41.00;;;;;;5072611;28;20410;-75
2023/08/17 11:40:58;;;;;;;108.17;3.40;;;28.80;41.60;;;;;;5072286;28;20421;-75
2023/08/17 11:43:24;;;;;;;110.40;3.60;;;27.90;44.90;;;;;;5072402;28;20945;-75
2023/08/17 11:45:51;;;;;;;109.77;3.03;;;28.20;43.40;;;;;;5072227;28;20405;-75
2023/08/17 11:48:19;;;;;;;107.27;2.57;;;28.30;43.00;;;;;;5072367;28;20249;-75
2023/08/17 11:50:45;;;;;;;108.87;3.40;;;28.20;43.40;;;;;;5072181;28;20498;-75
2023/08/17 11:53:10;;;;;;;108.60;3.37;;;28.50;44.30;;;;;;5054154;28;20998;-75
2023/08/17 11:55:36;;;;;;;107.67;2.80;;;29.10;41.70;;;;;;5071995;28;20410;-75
2023/08/17 11:58:03;;;;;;;108.17;2.93;;;29.40;39.80;;;;;;5072108;28;20194;-75
2023/08/17 12:00:40;;;;;;;108.00;3.20;;;29.60;39.00;;;;;;5071648;28;20570;-75
2023/08/17 12:03:06;;;;;;;108.97;3.40;;;29.70;38.90;;;;;;5054112;28;20475;-75
2023/08/17 12:05:32;;;;;;;108.00;3.13;;;29.00;40.00;;;;;;5071762;28;20401;-75
2023/08/17 12:08:01;;;;;;;107.97;3.20;;;29.10;40.80;;;;;;5071885;28;20594;-75
2023/08/17 12:10:31;;;;;;;108.50;3.30;;;29.40;39.90;;;;;;5071770;28;20944;-75
2023/08/17 12:12:59;;;;;;;107.40;2.70;;;29.20;40.40;;;;;;5071748;28;20480;-75
2023/08/17 12:15:30;;;;;;;109.13;3.00;;;28.80;41.70;;;;;;5071625;28;20402;-75
2023/08/17 12:18:00;;;;;;;108.67;3.30;;;28.50;42.00;;;;;;5071803;28;20476;-75
2023/08/17 12:20:25;;;;;;;108.20;3.30;;;28.20;42.80;;;;;;5071767;28;20439;-75
2023/08/17 12:22:51;;;;;;;107.90;3.00;;;28.40;42.60;;;;;;5071641;28;20405;-75
2023/08/17 12:25:20;;;;;;;111.40;3.30;;;28.90;42.40;;;;;;5071918;28;20175;-75
2023/08/17 12:27:47;;;;;;;108.87;3.50;;;29.10;42.30;;;;;;5071882;28;20175;-75